Time;durP1;ratioP1;P1;durP2;ratioP2;P2;SDS_P1;SDS_P2;PMS_P1;PMS_P2;Temp;Humidity;BMP_temperature;BMP_pressure;BME280_temperature;BME280_humidity;BME280_pressure;Samples;Min_cycle;Max_cycle;Signal;HPM_P1;HPM_P2
2022/09/01 00:09:54;;;;;;;13.32;7.43;;;15.40;99.90;;;;;;20924926;28;20052;-77
2022/09/01 00:19:54;;;;;;;10.33;6.93;;;15.20;99.90;;;;;;20918639;28;20033;-75
2022/09/01 00:29:55;;;;;;;13.30;7.27;;;15.10;99.90;;;;;;20916486;28;20041;-77
2022/09/01 00:39:56;;;;;;;11.03;7.33;;;15.10;99.90;;;;;;20915327;28;20037;-77
2022/09/01 00:49:58;;;;;;;18.67;7.57;;;15.10;99.90;;;;;;20913688;28;20484;-77
2022/09/01 01:00:05;;;;;;;13.95;7.90;;;15.00;99.90;;;;;;20899518;28;20116;-77
2022/09/01 01:10:08;;;;;;;16.40;8.80;;;14.90;99.90;;;;;;20925117;28;20032;-76
2022/09/01 01:30:34;;;;;;;14.73;8.38;;;14.90;99.90;;;;;;20975981;28;20040;-77
2022/09/01 01:40:37;;;;;;;11.93;7.20;;;14.80;99.90;;;;;;20977565;28;20040;-76
2022/09/01 01:50:38;;;;;;;12.13;7.13;;;14.80;99.90;;;;;;20978239;28;20040;-77
2022/09/01 02:00:41;;;;;;;13.38;8.82;;;14.70;99.90;;;;;;20989970;28;20037;-77
2022/09/01 04:29:38;;;;;;;14.85;10.52;;;13.50;99.90;;;;;;20560990;28;20043;-76
2022/09/01 05:16:03;;;;;;;17.17;9.13;;;14.20;99.90;;;;;;20342105;29;20443;-76
2022/09/01 05:39:25;;;;;;;18.40;8.73;;;14.40;99.90;;;;;;20338914;29;20491;-77
2022/09/01 06:12:39;;;;;;;15.65;9.25;;;14.80;99.90;;;;;;20693651;23;20045;-77
2022/09/01 06:22:40;;;;;;;16.27;9.27;;;15.10;99.90;;;;;;20978292;28;20064;-78
2022/09/01 06:32:45;;;;;;;11.70;9.30;;;15.30;99.90;;;;;;20991226;28;20048;-78
2022/09/01 06:42:49;;;;;;;12.57;8.60;;;15.50;99.90;;;;;;21010394;28;20039;-77
2022/09/01 06:53:02;;;;;;;15.23;7.82;;;15.60;99.90;;;;;;21005238;28;20037;-77
2022/09/01 07:03:07;;;;;;;11.70;7.40;;;15.90;99.90;;;;;;20985618;28;20044;-78
2022/09/01 07:13:24;;;;;;;11.10;6.90;;;16.10;99.90;;;;;;20997739;28;20040;-79
2022/09/01 07:23:26;;;;;;;11.40;7.47;;;16.30;99.90;;;;;;21005283;28;20044;-78
2022/09/01 07:33:29;;;;;;;10.63;6.50;;;16.50;99.90;;;;;;21004521;28;20621;-78
2022/09/01 07:43:32;;;;;;;9.77;5.53;;;16.70;99.90;;;;;;21003432;28;20094;-77
2022/09/01 07:53:52;;;;;;;7.68;4.93;;;17.00;99.90;;;;;;21019345;28;20601;-79
2022/09/01 08:03:58;;;;;;;7.45;4.35;;;17.30;99.90;;;;;;21001943;28;20117;-78
2022/09/01 08:14:00;;;;;;;9.20;4.90;;;17.70;99.90;;;;;;20984238;28;20056;-79
2022/09/01 08:24:02;;;;;;;5.45;4.22;;;18.20;99.90;;;;;;21000451;28;20064;-77
2022/09/01 08:34:06;;;;;;;6.15;4.30;;;19.00;99.90;;;;;;20999701;28;20036;-79
2022/09/01 08:44:28;;;;;;;5.75;3.88;;;18.50;99.90;;;;;;20997459;28;20044;-78
2022/09/01 08:54:37;;;;;;;4.60;3.67;;;19.00;99.90;;;;;;20990548;28;20546;-77
2022/09/01 09:05:14;;;;;;;5.53;3.20;;;19.50;99.90;;;;;;21014167;28;20032;-79
2022/09/01 09:15:24;;;;;;;4.88;3.10;;;20.00;99.90;;;;;;20984768;28;20044;-78
2022/09/01 09:25:28;;;;;;;5.50;3.70;;;20.10;99.90;;;;;;21013733;28;20040;-79
2022/09/01 09:35:38;;;;;;;8.88;3.67;;;19.80;99.90;;;;;;21009762;28;20118;-78
2022/09/01 09:45:39;;;;;;;5.50;3.35;;;20.50;99.90;;;;;;21011589;28;20056;-79
2022/09/01 09:56:01;;;;;;;7.32;3.30;;;21.90;99.90;;;;;;21012097;28;20494;-79
2022/09/01 10:06:02;;;;;;;5.25;2.42;;;22.10;99.90;;;;;;20977963;28;20051;-79
2022/09/01 10:16:18;;;;;;;4.20;2.67;;;23.40;99.90;;;;;;20993507;28;20379;-78
2022/09/01 10:26:26;;;;;;;4.32;2.63;;;22.70;99.90;;;;;;21008246;28;20116;-79
2022/09/01 10:36:28;;;;;;;5.63;2.20;;;24.10;99.90;;;;;;21027213;28;20032;-78
2022/09/01 10:46:43;;;;;;;2.78;1.83;;;24.90;99.90;;;;;;21024289;28;20309;-78
2022/09/01 10:56:49;;;;;;;3.22;2.45;;;25.20;99.90;;;;;;21021341;28;20068;-79
2022/09/01 11:06:50;;;;;;;5.30;3.10;;;24.40;99.90;;;;;;21002218;28;20063;-78
2022/09/01 11:17:16;;;;;;;5.03;2.30;;;24.50;99.90;;;;;;21010328;28;20060;-79
2022/09/01 11:27:55;;;;;;;6.25;2.15;;;24.50;99.90;;;;;;21021438;28;20637;-78
2022/09/01 11:38:03;;;;;;;2.53;1.92;;;24.90;99.90;;;;;;21023623;28;20334;-80
2022/09/01 11:48:09;;;;;;;2.80;2.30;;;24.40;99.90;;;;;;21023371;28;20049;-79
2022/09/01 11:58:31;;;;;;;4.38;1.80;;;23.80;99.90;;;;;;21003580;28;20082;-79
2022/09/01 12:08:36;;;;;;;1.88;1.67;;;24.50;99.90;;;;;;21011419;22;20048;-76
2022/09/01 12:18:46;;;;;;;2.00;1.67;;;23.60;99.90;;;;;;20997101;28;20037;-76
2022/09/01 12:28:48;;;;;;;3.30;1.65;;;25.10;99.90;;;;;;20997441;28;20037;-75
2022/09/01 12:38:50;;;;;;;1.70;1.40;;;25.70;99.90;;;;;;20995770;28;20048;-76
2022/09/01 12:48:51;;;;;;;3.28;1.48;;;26.00;99.90;;;;;;21004607;28;20037;-74
2022/09/01 12:59:05;;;;;;;2.10;1.42;;;25.80;99.90;;;;;;20981270;28;20047;-75
2022/09/01 13:09:06;;;;;;;3.92;1.65;;;26.50;99.90;;;;;;20992579;28;20199;-75
2022/09/01 13:19:07;;;;;;;2.88;1.50;;;24.70;99.90;;;;;;20991938;28;20059;-76
2022/09/01 13:29:08;;;;;;;2.22;1.38;;;25.20;99.90;;;;;;20991588;28;20036;-75
2022/09/01 13:39:09;;;;;;;;;;;24.10;99.90;;;;;;20974134;28;20051;-75
2022/09/01 13:49:10;;;;;;;3.07;1.70;;;23.60;99.90;;;;;;20990558;28;19920;-76
2022/09/01 13:59:11;;;;;;;3.25;1.60;;;25.00;99.90;;;;;;20974950;28;20041;-75
2022/09/01 14:09:14;;;;;;;1.67;1.48;;;25.30;99.90;;;;;;21006975;28;20036;-76
2022/09/01 14:19:15;;;;;;;2.00;1.52;;;25.70;99.90;;;;;;21008140;28;20047;-75
2022/09/01 14:29:16;;;;;;;1.70;1.40;;;25.60;99.90;;;;;;21007697;28;20064;-75
2022/09/01 14:39:17;;;;;;;2.35;1.45;;;25.80;99.90;;;;;;21020729;28;20028;-76
2022/09/01 14:49:18;;;;;;;1.55;1.27;;;26.20;99.90;;;;;;20992041;28;20126;-76
2022/09/01 14:59:19;;;;;;;2.00;1.30;;;26.00;99.90;;;;;;20994031;28;20049;-75
2022/09/01 15:09:20;;;;;;;1.67;1.20;;;25.20;99.90;;;;;;21026376;28;20067;-75
2022/09/01 15:19:21;;;;;;;2.05;1.50;;;26.00;99.90;;;;;;21018080;28;20044;-74
2022/09/01 15:29:22;;;;;;;2.03;1.52;;;25.40;99.90;;;;;;21017166;28;20080;-74
2022/09/01 15:39:23;;;;;;;2.30;1.50;;;25.20;99.90;;;;;;20999784;28;20044;-75
2022/09/01 15:49:23;;;;;;;3.75;1.60;;;24.90;99.90;;;;;;20966338;28;20394;-75
2022/09/01 15:59:24;;;;;;;;;;;25.00;99.90;;;;;;20985880;28;20035;-75
2022/09/01 16:09:25;;;;;;;2.77;1.80;;;24.20;99.90;;;;;;21069891;28;19918;-76
2022/09/01 16:19:27;;;;;;;;;;;23.70;99.90;;;;;;21047847;28;20041;-76
2022/09/01 16:29:39;;;;;;;1.90;1.53;;;23.50;99.90;;;;;;21045121;28;20298;-75
2022/09/01 16:39:45;;;;;;;3.00;1.63;;;23.30;99.90;;;;;;20996347;28;20037;-75
2022/09/01 16:50:07;;;;;;;5.90;1.98;;;22.50;99.90;;;;;;20983163;28;20283;-76
2022/09/01 17:00:12;;;;;;;2.63;2.00;;;22.00;99.90;;;;;;21036503;28;20557;-76
2022/09/01 17:10:29;;;;;;;3.17;2.38;;;21.80;99.90;;;;;;20992867;28;20621;-75
2022/09/01 17:20:38;;;;;;;2.60;1.90;;;22.00;99.90;;;;;;20992322;28;20521;-75
2022/09/01 17:30:51;;;;;;;2.30;2.08;;;21.70;99.90;;;;;;20996528;28;20123;-75
2022/09/01 17:41:21;;;;;;;3.25;2.20;;;21.30;99.90;;;;;;21076191;28;20040;-75
2022/09/01 17:52:01;;;;;;;3.28;2.22;;;20.90;99.90;;;;;;21056771;28;20040;-75
2022/09/01 18:02:39;;;;;;;2.65;2.10;;;20.50;99.90;;;;;;20987088;28;20040;-75
2022/09/01 18:12:42;;;;;;;3.95;2.28;;;20.30;99.90;;;;;;21078001;23;20058;-78
2022/09/01 18:23:08;;;;;;;2.42;2.20;;;20.00;99.90;;;;;;21155661;28;20051;-77
2022/09/01 18:33:26;;;;;;;3.90;2.53;;;19.60;99.90;;;;;;21130108;28;20040;-77
2022/09/01 18:43:45;;;;;;;3.60;2.70;;;19.40;99.90;;;;;;21063664;28;20044;-77
2022/09/01 18:53:51;;;;;;;4.60;2.90;;;19.00;99.90;;;;;;21068362;28;20497;-77
2022/09/01 19:04:03;;;;;;;6.47;3.10;;;18.80;99.90;;;;;;21085722;28;20060;-77
2022/09/01 19:14:25;;;;;;;4.87;3.63;;;18.60;99.90;;;;;;21085046;28;20522;-77
2022/09/01 19:24:26;;;;;;;;;;;18.30;99.90;;;;;;21084888;28;20157;-77
2022/09/01 19:34:36;;;;;;;4.78;3.35;;;18.00;99.90;;;;;;21087885;28;19917;-77
2022/09/01 19:44:37;;;;;;;10.43;3.50;;;17.80;99.90;;;;;;21083191;28;20040;-77
2022/09/01 19:54:51;;;;;;;4.80;3.10;;;17.60;99.90;;;;;;21081556;28;20498;-77
2022/09/01 20:05:20;;;;;;;7.43;3.80;;;17.30;99.90;;;;;;21079021;28;20505;-77
2022/09/01 20:15:24;;;;;;;5.47;3.80;;;17.20;99.90;;;;;;21095521;28;20036;-77
2022/09/01 20:25:31;;;;;;;6.25;4.20;;;17.10;99.90;;;;;;21097163;28;20045;-76
2022/09/01 20:35:43;;;;;;;8.15;3.92;;;17.00;99.90;;;;;;21110235;28;20577;-77
2022/09/01 20:45:44;;;;;;;6.33;4.40;;;16.90;99.90;;;;;;21088710;28;20520;-77
2022/09/01 20:55:50;;;;;;;5.82;4.45;;;16.70;99.90;;;;;;21111833;28;20119;-77
2022/09/01 21:06:02;;;;;;;7.65;4.18;;;16.60;99.90;;;;;;21098436;28;20121;-76
2022/09/01 21:16:21;;;;;;;;;;;16.50;99.90;;;;;;21114984;28;20043;-77
2022/09/01 21:26:22;;;;;;;4.80;3.80;;;16.30;99.90;;;;;;21146211;28;19952;-77
2022/09/01 21:36:23;;;;;;;5.97;4.17;;;16.30;99.90;;;;;;21115069;28;20047;-77
2022/09/01 21:46:25;;;;;;;11.30;4.87;;;16.30;99.90;;;;;;21072833;28;20463;-76
2022/09/01 21:56:26;;;;;;;6.38;4.63;;;16.10;99.90;;;;;;21050276;28;20040;-77
2022/09/01 22:06:27;;;;;;;5.87;4.23;;;15.90;99.90;;;;;;21072926;28;20039;-76
2022/09/01 22:16:28;;;;;;;6.20;4.83;;;16.00;99.90;;;;;;21061762;28;20102;-78
2022/09/01 22:26:30;;;;;;;5.03;4.10;;;15.80;99.90;;;;;;21089221;28;20447;-78
2022/09/01 22:36:43;;;;;;;5.63;4.13;;;15.80;99.90;;;;;;21088225;28;20544;-78
2022/09/01 22:46:44;;;;;;;6.95;4.50;;;15.70;99.90;;;;;;21087429;28;20387;-78
2022/09/01 22:56:44;;;;;;;6.60;3.90;;;15.60;99.90;;;;;;21086228;28;20071;-77
2022/09/01 23:06:48;;;;;;;6.63;4.63;;;15.70;99.90;;;;;;21076433;28;20040;-78
2022/09/01 23:16:50;;;;;;;13.30;5.22;;;15.50;99.90;;;;;;21083071;28;20494;-78
2022/09/01 23:26:51;;;;;;;9.25;5.57;;;15.30;99.90;;;;;;21076367;28;20044;-78
2022/09/01 23:36:52;;;;;;;7.57;5.33;;;15.50;99.90;;;;;;21054565;28;20667;-77
2022/09/01 23:46:52;;;;;;;9.27;5.27;;;15.40;99.90;;;;;;21082696;28;20056;-78
2022/09/01 23:56:53;;;;;;;6.53;4.57;;;15.20;99.90;;;;;;21082074;28;20092;-78
